sensor_id;sensor_type;location;lat;lon;timestamp;P1;durP1;ratioP1;P2;durP2;ratioP2
13832;SDS011;6987;19.472;-99.276;2023-09-19T00:00:58;10.38;;;8.30;;
13832;SDS011;6987;19.472;-99.276;2023-09-19T00:03:29;10.80;;;8.30;;
13832;SDS011;6987;19.472;-99.276;2023-09-19T00:05:59;10.23;;;8.05;;
13832;SDS011;6987;19.472;-99.276;2023-09-19T00:08:28;7.38;;;6.70;;
13832;SDS011;6987;19.472;-99.276;2023-09-19T00:11:00;12.75;;;9.05;;
13832;SDS011;6987;19.472;-99.276;2023-09-19T00:13:31;8.43;;;7.47;;
13832;SDS011;6987;19.472;-99.276;2023-09-19T00:16:01;8.35;;;7.47;;
13832;SDS011;6987;19.472;-99.276;2023-09-19T00:18:38;9.57;;;7.40;;
13832;SDS011;6987;19.472;-99.276;2023-09-19T00:21:08;9.07;;;8.10;;
13832;SDS011;6987;19.472;-99.276;2023-09-19T00:23:37;10.10;;;7.65;;
13832;SDS011;6987;19.472;-99.276;2023-09-19T00:26:09;8.70;;;7.82;;
13832;SDS011;6987;19.472;-99.276;2023-09-19T00:28:39;10.23;;;7.88;;
13832;SDS011;6987;19.472;-99.276;2023-09-19T00:31:08;9.30;;;8.48;;
13832;SDS011;6987;19.472;-99.276;2023-09-19T00:33:38;10.80;;;9.70;;
13832;SDS011;6987;19.472;-99.276;2023-09-19T00:36:08;10.70;;;8.65;;
13832;SDS011;6987;19.472;-99.276;2023-09-19T00:38:38;10.50;;;8.98;;
13832;SDS011;6987;19.472;-99.276;2023-09-19T00:41:12;10.80;;;8.93;;
13832;SDS011;6987;19.472;-99.276;2023-09-19T00:43:41;10.13;;;9.13;;
13832;SDS011;6987;19.472;-99.276;2023-09-19T00:46:11;9.70;;;8.65;;
13832;SDS011;6987;19.472;-99.276;2023-09-19T00:48:42;11.77;;;9.27;;
13832;SDS011;6987;19.472;-99.276;2023-09-19T00:51:12;8.55;;;7.85;;
13832;SDS011;6987;19.472;-99.276;2023-09-19T00:53:45;9.00;;;8.20;;
13832;SDS011;6987;19.472;-99.276;2023-09-19T00:56:16;9.38;;;8.50;;
13832;SDS011;6987;19.472;-99.276;2023-09-19T00:58:46;10.02;;;9.02;;
13832;SDS011;6987;19.472;-99.276;2023-09-19T01:01:16;15.52;;;9.50;;
13832;SDS011;6987;19.472;-99.276;2023-09-19T01:03:46;11.75;;;9.48;;
13832;SDS011;6987;19.472;-99.276;2023-09-19T01:06:15;11.70;;;10.55;;
13832;SDS011;6987;19.472;-99.276;2023-09-19T01:08:45;11.60;;;10.50;;
13832;SDS011;6987;19.472;-99.276;2023-09-19T01:11:17;12.50;;;11.18;;
13832;SDS011;6987;19.472;-99.276;2023-09-19T01:13:56;13.73;;;11.77;;
13832;SDS011;6987;19.472;-99.276;2023-09-19T01:16:32;12.85;;;10.93;;
13832;SDS011;6987;19.472;-99.276;2023-09-19T01:22:12;13.40;;;11.82;;
13832;SDS011;6987;19.472;-99.276;2023-09-19T01:28:05;17.00;;;12.63;;
13832;SDS011;6987;19.472;-99.276;2023-09-19T01:30:44;15.70;;;11.60;;
13832;SDS011;6987;19.472;-99.276;2023-09-19T01:33:19;13.52;;;11.95;;
13832;SDS011;6987;19.472;-99.276;2023-09-19T01:35:49;14.77;;;12.73;;
13832;SDS011;6987;19.472;-99.276;2023-09-19T01:38:19;14.85;;;12.63;;
13832;SDS011;6987;19.472;-99.276;2023-09-19T01:40:51;17.35;;;13.07;;
13832;SDS011;6987;19.472;-99.276;2023-09-19T01:43:31;14.80;;;12.35;;
13832;SDS011;6987;19.472;-99.276;2023-09-19T01:46:09;14.20;;;10.95;;
13832;SDS011;6987;19.472;-99.276;2023-09-19T01:48:41;12.18;;;9.60;;
13832;SDS011;6987;19.472;-99.276;2023-09-19T01:51:18;11.25;;;8.63;;
13832;SDS011;6987;19.472;-99.276;2023-09-19T01:53:51;8.27;;;6.90;;
13832;SDS011;6987;19.472;-99.276;2023-09-19T01:56:25;7.35;;;4.10;;
13832;SDS011;6987;19.472;-99.276;2023-09-19T01:59:04;4.88;;;4.57;;
13832;SDS011;6987;19.472;-99.276;2023-09-19T02:01:39;5.13;;;4.72;;
13832;SDS011;6987;19.472;-99.276;2023-09-19T02:04:10;5.40;;;3.97;;
13832;SDS011;6987;19.472;-99.276;2023-09-19T02:06:40;4.07;;;3.67;;
13832;SDS011;6987;19.472;-99.276;2023-09-19T02:09:09;6.53;;;3.85;;
13832;SDS011;6987;19.472;-99.276;2023-09-19T02:11:38;4.45;;;4.15;;
13832;SDS011;6987;19.472;-99.276;2023-09-19T02:14:08;4.00;;;3.70;;
13832;SDS011;6987;19.472;-99.276;2023-09-19T02:16:39;4.38;;;4.07;;
13832;SDS011;6987;19.472;-99.276;2023-09-19T02:19:08;9.02;;;5.57;;
13832;SDS011;6987;19.472;-99.276;2023-09-19T02:21:37;12.02;;;7.53;;
13832;SDS011;6987;19.472;-99.276;2023-09-19T02:24:07;8.95;;;6.63;;
13832;SDS011;6987;19.472;-99.276;2023-09-19T02:26:38;16.23;;;7.60;;
13832;SDS011;6987;19.472;-99.276;2023-09-19T02:29:07;37.03;;;9.82;;
13832;SDS011;6987;19.472;-99.276;2023-09-19T02:31:40;9.88;;;8.00;;
13832;SDS011;6987;19.472;-99.276;2023-09-19T02:34:11;21.67;;;9.88;;
13832;SDS011;6987;19.472;-99.276;2023-09-19T02:36:42;11.10;;;9.95;;
13832;SDS011;6987;19.472;-99.276;2023-09-19T02:39:11;13.23;;;9.57;;
13832;SDS011;6987;19.472;-99.276;2023-09-19T02:41:40;11.57;;;10.20;;
13832;SDS011;6987;19.472;-99.276;2023-09-19T02:44:10;10.48;;;9.45;;
13832;SDS011;6987;19.472;-99.276;2023-09-19T02:46:41;12.60;;;9.20;;
13832;SDS011;6987;19.472;-99.276;2023-09-19T02:49:11;10.98;;;9.75;;
13832;SDS011;6987;19.472;-99.276;2023-09-19T02:51:40;12.45;;;9.48;;
13832;SDS011;6987;19.472;-99.276;2023-09-19T02:54:09;22.85;;;12.30;;
13832;SDS011;6987;19.472;-99.276;2023-09-19T02:56:38;13.57;;;11.35;;
13832;SDS011;6987;19.472;-99.276;2023-09-19T02:59:08;13.18;;;11.20;;
13832;SDS011;6987;19.472;-99.276;2023-09-19T03:01:37;12.60;;;11.30;;
13832;SDS011;6987;19.472;-99.276;2023-09-19T03:04:09;16.08;;;12.18;;
13832;SDS011;6987;19.472;-99.276;2023-09-19T03:06:39;13.43;;;11.65;;
13832;SDS011;6987;19.472;-99.276;2023-09-19T03:09:09;9.65;;;8.80;;
13832;SDS011;6987;19.472;-99.276;2023-09-19T03:11:39;13.05;;;9.63;;
13832;SDS011;6987;19.472;-99.276;2023-09-19T03:14:08;12.73;;;9.02;;
13832;SDS011;6987;19.472;-99.276;2023-09-19T03:16:38;10.73;;;9.43;;
13832;SDS011;6987;19.472;-99.276;2023-09-19T03:19:09;10.60;;;8.85;;
13832;SDS011;6987;19.472;-99.276;2023-09-19T03:21:41;9.68;;;8.77;;
13832;SDS011;6987;19.472;-99.276;2023-09-19T03:24:10;8.50;;;7.57;;
13832;SDS011;6987;19.472;-99.276;2023-09-19T03:26:39;11.27;;;8.07;;
13832;SDS011;6987;19.472;-99.276;2023-09-19T03:29:09;10.15;;;7.55;;
13832;SDS011;6987;19.472;-99.276;2023-09-19T03:31:39;9.38;;;8.50;;
13832;SDS011;6987;19.472;-99.276;2023-09-19T03:34:10;8.73;;;7.47;;
13832;SDS011;6987;19.472;-99.276;2023-09-19T03:36:40;8.15;;;6.50;;
13832;SDS011;6987;19.472;-99.276;2023-09-19T03:39:09;7.22;;;6.50;;
13832;SDS011;6987;19.472;-99.276;2023-09-19T03:41:41;6.38;;;5.88;;
13832;SDS011;6987;19.472;-99.276;2023-09-19T03:44:11;6.53;;;6.00;;
13832;SDS011;6987;19.472;-99.276;2023-09-19T03:46:40;6.72;;;5.95;;
13832;SDS011;6987;19.472;-99.276;2023-09-19T03:49:11;6.95;;;5.97;;
13832;SDS011;6987;19.472;-99.276;2023-09-19T03:51:40;8.13;;;5.57;;
13832;SDS011;6987;19.472;-99.276;2023-09-19T03:54:10;5.95;;;5.50;;
13832;SDS011;6987;19.472;-99.276;2023-09-19T03:56:40;6.10;;;5.55;;
13832;SDS011;6987;19.472;-99.276;2023-09-19T03:59:09;6.05;;;5.35;;
13832;SDS011;6987;19.472;-99.276;2023-09-19T04:01:39;9.15;;;5.95;;
13832;SDS011;6987;19.472;-99.276;2023-09-19T04:04:08;6.35;;;5.55;;
13832;SDS011;6987;19.472;-99.276;2023-09-19T04:06:40;6.55;;;5.65;;
13832;SDS011;6987;19.472;-99.276;2023-09-19T04:09:09;5.78;;;5.28;;
13832;SDS011;6987;19.472;-99.276;2023-09-19T04:11:38;5.80;;;5.30;;
13832;SDS011;6987;19.472;-99.276;2023-09-19T04:14:08;5.90;;;5.30;;
13832;SDS011;6987;19.472;-99.276;2023-09-19T04:16:37;6.25;;;5.32;;
13832;SDS011;6987;19.472;-99.276;2023-09-19T04:19:06;6.63;;;6.00;;
13832;SDS011;6987;19.472;-99.276;2023-09-19T04:21:37;6.22;;;5.10;;
13832;SDS011;6987;19.472;-99.276;2023-09-19T04:24:07;6.70;;;5.30;;
13832;SDS011;6987;19.472;-99.276;2023-09-19T04:26:39;5.95;;;5.32;;
13832;SDS011;6987;19.472;-99.276;2023-09-19T04:29:09;6.45;;;5.85;;
13832;SDS011;6987;19.472;-99.276;2023-09-19T04:31:39;10.85;;;5.00;;
13832;SDS011;6987;19.472;-99.276;2023-09-19T04:34:11;6.15;;;5.50;;
13832;SDS011;6987;19.472;-99.276;2023-09-19T04:36:43;6.35;;;5.65;;
13832;SDS011;6987;19.472;-99.276;2023-09-19T04:39:12;5.97;;;5.13;;
13832;SDS011;6987;19.472;-99.276;2023-09-19T04:41:42;5.95;;;5.43;;
13832;SDS011;6987;19.472;-99.276;2023-09-19T04:44:13;6.10;;;5.55;;
13832;SDS011;6987;19.472;-99.276;2023-09-19T04:46:44;6.20;;;5.05;;
13832;SDS011;6987;19.472;-99.276;2023-09-19T04:49:13;7.38;;;4.50;;
13832;SDS011;6987;19.472;-99.276;2023-09-19T04:51:45;5.32;;;4.82;;
13832;SDS011;6987;19.472;-99.276;2023-09-19T04:54:15;5.07;;;4.68;;
13832;SDS011;6987;19.472;-99.276;2023-09-19T04:56:45;4.78;;;4.38;;
13832;SDS011;6987;19.472;-99.276;2023-09-19T04:59:14;6.82;;;5.60;;
13832;SDS011;6987;19.472;-99.276;2023-09-19T05:01:44;4.53;;;4.22;;
13832;SDS011;6987;19.472;-99.276;2023-09-19T05:04:13;4.80;;;4.28;;
13832;SDS011;6987;19.472;-99.276;2023-09-19T05:06:42;5.40;;;4.20;;
13832;SDS011;6987;19.472;-99.276;2023-09-19T05:09:14;4.13;;;3.75;;
13832;SDS011;6987;19.472;-99.276;2023-09-19T05:11:45;4.15;;;3.85;;
13832;SDS011;6987;19.472;-99.276;2023-09-19T05:14:15;4.07;;;3.88;;
13832;SDS011;6987;19.472;-99.276;2023-09-19T05:16:44;4.50;;;4.20;;
13832;SDS011;6987;19.472;-99.276;2023-09-19T05:19:14;4.03;;;3.72;;
13832;SDS011;6987;19.472;-99.276;2023-09-19T05:21:45;4.43;;;4.13;;
13832;SDS011;6987;19.472;-99.276;2023-09-19T05:24:14;5.25;;;3.83;;
13832;SDS011;6987;19.472;-99.276;2023-09-19T05:26:44;3.63;;;3.35;;
13832;SDS011;6987;19.472;-99.276;2023-09-19T05:29:13;3.80;;;3.60;;
13832;SDS011;6987;19.472;-99.276;2023-09-19T05:31:42;4.85;;;3.90;;
13832;SDS011;6987;19.472;-99.276;2023-09-19T05:34:12;4.47;;;4.07;;
13832;SDS011;6987;19.472;-99.276;2023-09-19T05:36:42;3.88;;;3.45;;
13832;SDS011;6987;19.472;-99.276;2023-09-19T05:39:14;4.25;;;3.95;;
13832;SDS011;6987;19.472;-99.276;2023-09-19T05:41:44;4.25;;;3.90;;
13832;SDS011;6987;19.472;-99.276;2023-09-19T05:44:13;4.30;;;4.00;;
13832;SDS011;6987;19.472;-99.276;2023-09-19T05:46:42;4.25;;;3.92;;
13832;SDS011;6987;19.472;-99.276;2023-09-19T05:49:13;3.65;;;3.45;;
13832;SDS011;6987;19.472;-99.276;2023-09-19T05:51:43;4.45;;;4.05;;
13832;SDS011;6987;19.472;-99.276;2023-09-19T05:54:14;4.30;;;3.95;;
13832;SDS011;6987;19.472;-99.276;2023-09-19T05:56:45;3.95;;;3.65;;
13832;SDS011;6987;19.472;-99.276;2023-09-19T05:59:18;3.95;;;3.53;;
13832;SDS011;6987;19.472;-99.276;2023-09-19T06:01:48;5.03;;;3.80;;
13832;SDS011;6987;19.472;-99.276;2023-09-19T06:04:17;3.83;;;3.53;;
13832;SDS011;6987;19.472;-99.276;2023-09-19T06:06:48;4.38;;;3.85;;
13832;SDS011;6987;19.472;-99.276;2023-09-19T06:09:18;3.83;;;3.53;;
13832;SDS011;6987;19.472;-99.276;2023-09-19T06:11:47;4.95;;;4.28;;
13832;SDS011;6987;19.472;-99.276;2023-09-19T06:14:17;4.38;;;3.95;;
13832;SDS011;6987;19.472;-99.276;2023-09-19T06:16:46;4.35;;;3.40;;
13832;SDS011;6987;19.472;-99.276;2023-09-19T06:19:16;4.15;;;3.85;;
13832;SDS011;6987;19.472;-99.276;2023-09-19T06:21:50;3.75;;;3.45;;
13832;SDS011;6987;19.472;-99.276;2023-09-19T06:24:24;4.18;;;3.78;;
13832;SDS011;6987;19.472;-99.276;2023-09-19T06:26:53;3.30;;;3.10;;
13832;SDS011;6987;19.472;-99.276;2023-09-19T06:29:23;4.28;;;3.97;;
13832;SDS011;6987;19.472;-99.276;2023-09-19T06:31:52;3.70;;;3.50;;
13832;SDS011;6987;19.472;-99.276;2023-09-19T06:34:21;4.60;;;3.42;;
13832;SDS011;6987;19.472;-99.276;2023-09-19T06:36:53;4.07;;;3.78;;
13832;SDS011;6987;19.472;-99.276;2023-09-19T06:39:24;4.30;;;3.90;;
13832;SDS011;6987;19.472;-99.276;2023-09-19T06:41:53;3.28;;;3.13;;
13832;SDS011;6987;19.472;-99.276;2023-09-19T06:44:22;3.95;;;3.58;;
13832;SDS011;6987;19.472;-99.276;2023-09-19T06:46:52;3.92;;;3.60;;
13832;SDS011;6987;19.472;-99.276;2023-09-19T06:49:21;4.55;;;3.03;;
13832;SDS011;6987;19.472;-99.276;2023-09-19T06:51:50;3.35;;;3.15;;
13832;SDS011;6987;19.472;-99.276;2023-09-19T06:54:24;3.55;;;3.25;;
13832;SDS011;6987;19.472;-99.276;2023-09-19T06:56:56;4.75;;;3.70;;
13832;SDS011;6987;19.472;-99.276;2023-09-19T06:59:26;3.40;;;3.13;;
13832;SDS011;6987;19.472;-99.276;2023-09-19T07:01:55;3.17;;;2.97;;
13832;SDS011;6987;19.472;-99.276;2023-09-19T07:04:25;3.55;;;3.25;;
13832;SDS011;6987;19.472;-99.276;2023-09-19T07:06:56;3.30;;;3.10;;
13832;SDS011;6987;19.472;-99.276;2023-09-19T07:09:25;3.80;;;3.50;;
13832;SDS011;6987;19.472;-99.276;2023-09-19T07:11:54;3.30;;;3.10;;
13832;SDS011;6987;19.472;-99.276;2023-09-19T07:14:24;3.65;;;3.35;;
13832;SDS011;6987;19.472;-99.276;2023-09-19T07:16:53;4.72;;;3.40;;
13832;SDS011;6987;19.472;-99.276;2023-09-19T07:19:23;3.63;;;3.33;;
13832;SDS011;6987;19.472;-99.276;2023-09-19T07:21:56;3.97;;;3.50;;
13832;SDS011;6987;19.472;-99.276;2023-09-19T07:24:28;3.38;;;3.08;;
13832;SDS011;6987;19.472;-99.276;2023-09-19T07:26:58;3.33;;;3.10;;
13832;SDS011;6987;19.472;-99.276;2023-09-19T07:29:27;3.72;;;3.42;;
13832;SDS011;6987;19.472;-99.276;2023-09-19T07:31:56;3.60;;;3.30;;
13832;SDS011;6987;19.472;-99.276;2023-09-19T07:34:26;3.78;;;3.55;;
13832;SDS011;6987;19.472;-99.276;2023-09-19T07:36:56;3.63;;;3.42;;
13832;SDS011;6987;19.472;-99.276;2023-09-19T07:39:26;4.82;;;3.35;;
13832;SDS011;6987;19.472;-99.276;2023-09-19T07:41:55;3.40;;;3.15;;
13832;SDS011;6987;19.472;-99.276;2023-09-19T07:44:24;3.50;;;3.20;;
13832;SDS011;6987;19.472;-99.276;2023-09-19T07:46:54;3.72;;;3.42;;
13832;SDS011;6987;19.472;-99.276;2023-09-19T07:49:23;5.43;;;3.88;;
13832;SDS011;6987;19.472;-99.276;2023-09-19T07:51:52;3.42;;;3.22;;
13832;SDS011;6987;19.472;-99.276;2023-09-19T07:54:24;3.92;;;3.63;;
13832;SDS011;6987;19.472;-99.276;2023-09-19T07:56:56;3.60;;;3.40;;
13832;SDS011;6987;19.472;-99.276;2023-09-19T07:59:25;4.00;;;3.35;;
13832;SDS011;6987;19.472;-99.276;2023-09-19T08:01:54;4.10;;;3.70;;
13832;SDS011;6987;19.472;-99.276;2023-09-19T08:04:23;4.60;;;3.95;;
13832;SDS011;6987;19.472;-99.276;2023-09-19T08:06:54;3.50;;;3.25;;
13832;SDS011;6987;19.472;-99.276;2023-09-19T08:09:26;3.60;;;3.30;;
13832;SDS011;6987;19.472;-99.276;2023-09-19T08:11:59;3.40;;;3.10;;
13832;SDS011;6987;19.472;-99.276;2023-09-19T08:14:30;3.63;;;3.38;;
13832;SDS011;6987;19.472;-99.276;2023-09-19T08:17:01;3.58;;;3.38;;
13832;SDS011;6987;19.472;-99.276;2023-09-19T08:19:31;3.47;;;3.22;;
13832;SDS011;6987;19.472;-99.276;2023-09-19T08:22:00;3.67;;;3.47;;
13832;SDS011;6987;19.472;-99.276;2023-09-19T08:24:31;3.53;;;3.33;;
13832;SDS011;6987;19.472;-99.276;2023-09-19T08:27:00;3.80;;;3.50;;
13832;SDS011;6987;19.472;-99.276;2023-09-19T08:29:35;3.60;;;3.40;;
13832;SDS011;6987;19.472;-99.276;2023-09-19T08:32:04;3.85;;;3.53;;
13832;SDS011;6987;19.472;-99.276;2023-09-19T08:34:33;4.40;;;4.10;;
13832;SDS011;6987;19.472;-99.276;2023-09-19T08:37:04;4.63;;;4.13;;
13832;SDS011;6987;19.472;-99.276;2023-09-19T08:39:35;4.32;;;3.90;;
13832;SDS011;6987;19.472;-99.276;2023-09-19T08:42:04;4.30;;;3.97;;
13832;SDS011;6987;19.472;-99.276;2023-09-19T08:44:36;3.85;;;3.55;;
13832;SDS011;6987;19.472;-99.276;2023-09-19T08:47:09;5.95;;;5.45;;
13832;SDS011;6987;19.472;-99.276;2023-09-19T08:49:48;8.18;;;6.18;;
13832;SDS011;6987;19.472;-99.276;2023-09-19T08:52:32;6.82;;;6.22;;
13832;SDS011;6987;19.472;-99.276;2023-09-19T08:55:10;7.35;;;6.85;;
13832;SDS011;6987;19.472;-99.276;2023-09-19T08:57:46;7.15;;;6.55;;
13832;SDS011;6987;19.472;-99.276;2023-09-19T09:00:19;6.13;;;5.63;;
13832;SDS011;6987;19.472;-99.276;2023-09-19T09:02:53;6.85;;;6.32;;
13832;SDS011;6987;19.472;-99.276;2023-09-19T09:05:24;6.40;;;5.80;;
13832;SDS011;6987;19.472;-99.276;2023-09-19T09:07:55;5.90;;;5.43;;
13832;SDS011;6987;19.472;-99.276;2023-09-19T09:10:28;5.88;;;5.28;;
13832;SDS011;6987;19.472;-99.276;2023-09-19T09:12:58;5.82;;;5.35;;
13832;SDS011;6987;19.472;-99.276;2023-09-19T09:15:28;5.95;;;4.80;;
13832;SDS011;6987;19.472;-99.276;2023-09-19T09:17:59;5.18;;;4.78;;
13832;SDS011;6987;19.472;-99.276;2023-09-19T09:20:28;5.60;;;4.80;;
13832;SDS011;6987;19.472;-99.276;2023-09-19T09:22:57;4.75;;;4.45;;
13832;SDS011;6987;19.472;-99.276;2023-09-19T09:25:49;4.85;;;4.50;;
13832;SDS011;6987;19.472;-99.276;2023-09-19T09:28:23;4.80;;;4.50;;
13832;SDS011;6987;19.472;-99.276;2023-09-19T09:30:54;4.70;;;4.40;;
13832;SDS011;6987;19.472;-99.276;2023-09-19T09:33:23;4.10;;;3.90;;
13832;SDS011;6987;19.472;-99.276;2023-09-19T09:35:54;4.57;;;4.18;;
13832;SDS011;6987;19.472;-99.276;2023-09-19T09:38:26;5.00;;;4.50;;
13832;SDS011;6987;19.472;-99.276;2023-09-19T09:40:59;3.90;;;3.63;;
13832;SDS011;6987;19.472;-99.276;2023-09-19T09:43:32;5.03;;;4.53;;
13832;SDS011;6987;19.472;-99.276;2023-09-19T09:46:07;4.28;;;4.00;;
13832;SDS011;6987;19.472;-99.276;2023-09-19T09:49:00;4.60;;;3.70;;
13832;SDS011;6987;19.472;-99.276;2023-09-19T09:51:44;5.28;;;4.00;;
13832;SDS011;6987;19.472;-99.276;2023-09-19T09:54:23;3.95;;;3.67;;
13832;SDS011;6987;19.472;-99.276;2023-09-19T09:57:01;4.15;;;3.83;;
13832;SDS011;6987;19.472;-99.276;2023-09-19T09:59:46;4.32;;;4.00;;
13832;SDS011;6987;19.472;-99.276;2023-09-19T10:02:21;4.10;;;3.80;;
13832;SDS011;6987;19.472;-99.276;2023-09-19T10:04:55;3.63;;;3.33;;
13832;SDS011;6987;19.472;-99.276;2023-09-19T10:07:36;4.20;;;3.90;;
13832;SDS011;6987;19.472;-99.276;2023-09-19T10:10:08;3.50;;;3.30;;
13832;SDS011;6987;19.472;-99.276;2023-09-19T10:12:44;4.10;;;3.70;;
13832;SDS011;6987;19.472;-99.276;2023-09-19T10:15:15;4.03;;;3.63;;
13832;SDS011;6987;19.472;-99.276;2023-09-19T10:17:46;4.28;;;3.97;;
13832;SDS011;6987;19.472;-99.276;2023-09-19T10:20:17;4.07;;;3.78;;
13832;SDS011;6987;19.472;-99.276;2023-09-19T10:23:04;3.92;;;3.63;;
13832;SDS011;6987;19.472;-99.276;2023-09-19T10:25:39;3.60;;;3.40;;
13832;SDS011;6987;19.472;-99.276;2023-09-19T10:28:11;3.53;;;3.33;;
13832;SDS011;6987;19.472;-99.276;2023-09-19T10:30:42;3.40;;;3.17;;
13832;SDS011;6987;19.472;-99.276;2023-09-19T10:33:13;4.07;;;3.78;;
13832;SDS011;6987;19.472;-99.276;2023-09-19T10:35:43;3.95;;;3.65;;
13832;SDS011;6987;19.472;-99.276;2023-09-19T10:38:13;4.05;;;3.75;;
13832;SDS011;6987;19.472;-99.276;2023-09-19T10:40:48;4.18;;;3.88;;
13832;SDS011;6987;19.472;-99.276;2023-09-19T10:43:21;3.95;;;3.70;;
13832;SDS011;6987;19.472;-99.276;2023-09-19T10:45:54;4.13;;;3.80;;
13832;SDS011;6987;19.472;-99.276;2023-09-19T10:48:29;3.97;;;3.67;;
13832;SDS011;6987;19.472;-99.276;2023-09-19T10:51:01;4.53;;;4.22;;
13832;SDS011;6987;19.472;-99.276;2023-09-19T10:53:40;4.32;;;4.03;;
13832;SDS011;6987;19.472;-99.276;2023-09-19T10:56:15;4.72;;;4.35;;
13832;SDS011;6987;19.472;-99.276;2023-09-19T10:58:51;4.90;;;4.50;;
13832;SDS011;6987;19.472;-99.276;2023-09-19T11:01:42;5.32;;;4.82;;
13832;SDS011;6987;19.472;-99.276;2023-09-19T11:04:23;4.85;;;4.55;;
13832;SDS011;6987;19.472;-99.276;2023-09-19T11:07:04;4.93;;;4.60;;
13832;SDS011;6987;19.472;-99.276;2023-09-19T11:09:46;4.78;;;4.30;;
13832;SDS011;6987;19.472;-99.276;2023-09-19T11:18:54;4.85;;;4.13;;
13832;SDS011;6987;19.472;-99.276;2023-09-19T11:21:52;4.85;;;4.18;;
13832;SDS011;6987;19.472;-99.276;2023-09-19T11:24:29;7.00;;;5.18;;
13832;SDS011;6987;19.472;-99.276;2023-09-19T11:30:03;5.05;;;4.70;;
13832;SDS011;6987;19.472;-99.276;2023-09-19T11:36:01;5.43;;;4.93;;
13832;SDS011;6987;19.472;-99.276;2023-09-19T11:41:39;5.22;;;4.90;;
13832;SDS011;6987;19.472;-99.276;2023-09-19T11:47:04;5.53;;;5.05;;
13832;SDS011;6987;19.472;-99.276;2023-09-19T11:49:38;5.55;;;5.13;;
13832;SDS011;6987;19.472;-99.276;2023-09-19T11:52:11;5.40;;;4.97;;
13832;SDS011;6987;19.472;-99.276;2023-09-19T11:54:54;6.05;;;5.55;;
13832;SDS011;6987;19.472;-99.276;2023-09-19T11:57:24;5.32;;;4.95;;
13832;SDS011;6987;19.472;-99.276;2023-09-19T11:59:55;5.72;;;5.22;;
13832;SDS011;6987;19.472;-99.276;2023-09-19T12:02:30;6.22;;;5.72;;
13832;SDS011;6987;19.472;-99.276;2023-09-19T12:05:07;6.05;;;5.47;;
13832;SDS011;6987;19.472;-99.276;2023-09-19T12:07:43;5.40;;;5.03;;
13832;SDS011;6987;19.472;-99.276;2023-09-19T12:10:14;5.93;;;5.40;;
13832;SDS011;6987;19.472;-99.276;2023-09-19T12:12:47;6.30;;;5.80;;
13832;SDS011;6987;19.472;-99.276;2023-09-19T12:15:22;6.25;;;5.72;;
13832;SDS011;6987;19.472;-99.276;2023-09-19T12:17:54;6.65;;;5.78;;
13832;SDS011;6987;19.472;-99.276;2023-09-19T12:20:23;10.50;;;5.90;;
13832;SDS011;6987;19.472;-99.276;2023-09-19T12:22:55;10.32;;;6.63;;
13832;SDS011;6987;19.472;-99.276;2023-09-19T12:25:24;6.63;;;6.13;;
13832;SDS011;6987;19.472;-99.276;2023-09-19T12:27:53;6.80;;;6.28;;
13832;SDS011;6987;19.472;-99.276;2023-09-19T12:30:27;7.35;;;6.75;;
13832;SDS011;6987;19.472;-99.276;2023-09-19T12:32:59;7.28;;;6.63;;
13832;SDS011;6987;19.472;-99.276;2023-09-19T12:35:29;9.32;;;6.30;;
13832;SDS011;6987;19.472;-99.276;2023-09-19T12:38:02;6.97;;;6.20;;
13832;SDS011;6987;19.472;-99.276;2023-09-19T12:40:31;6.93;;;6.28;;
13832;SDS011;6987;19.472;-99.276;2023-09-19T12:43:03;6.22;;;5.75;;
13832;SDS011;6987;19.472;-99.276;2023-09-19T12:45:35;6.55;;;5.93;;
13832;SDS011;6987;19.472;-99.276;2023-09-19T12:48:20;7.00;;;6.38;;
13832;SDS011;6987;19.472;-99.276;2023-09-19T12:51:04;8.23;;;6.22;;
13832;SDS011;6987;19.472;-99.276;2023-09-19T12:53:37;6.70;;;6.20;;
13832;SDS011;6987;19.472;-99.276;2023-09-19T12:56:08;7.70;;;7.07;;
13832;SDS011;6987;19.472;-99.276;2023-09-19T12:58:49;8.13;;;6.65;;
13832;SDS011;6987;19.472;-99.276;2023-09-19T13:01:21;7.28;;;6.57;;
13832;SDS011;6987;19.472;-99.276;2023-09-19T13:06:44;8.10;;;7.40;;
13832;SDS011;6987;19.472;-99.276;2023-09-19T13:09:16;6.53;;;6.03;;
13832;SDS011;6987;19.472;-99.276;2023-09-19T13:11:47;7.00;;;6.40;;
13832;SDS011;6987;19.472;-99.276;2023-09-19T13:14:19;8.40;;;6.65;;
13832;SDS011;6987;19.472;-99.276;2023-09-19T13:16:59;7.70;;;7.07;;
13832;SDS011;6987;19.472;-99.276;2023-09-19T13:19:39;8.55;;;7.20;;
13832;SDS011;6987;19.472;-99.276;2023-09-19T13:25:07;7.25;;;6.55;;
13832;SDS011;6987;19.472;-99.276;2023-09-19T13:27:40;7.40;;;6.70;;
13832;SDS011;6987;19.472;-99.276;2023-09-19T13:30:11;8.38;;;7.55;;
13832;SDS011;6987;19.472;-99.276;2023-09-19T13:32:41;7.53;;;6.18;;
13832;SDS011;6987;19.472;-99.276;2023-09-19T13:35:12;7.45;;;6.82;;
13832;SDS011;6987;19.472;-99.276;2023-09-19T13:37:43;8.75;;;7.97;;
13832;SDS011;6987;19.472;-99.276;2023-09-19T13:40:16;8.05;;;7.45;;
13832;SDS011;6987;19.472;-99.276;2023-09-19T13:42:45;8.02;;;7.38;;
13832;SDS011;6987;19.472;-99.276;2023-09-19T13:45:14;8.10;;;7.43;;
13832;SDS011;6987;19.472;-99.276;2023-09-19T13:47:47;8.25;;;6.97;;
13832;SDS011;6987;19.472;-99.276;2023-09-19T13:50:17;7.80;;;7.10;;
13832;SDS011;6987;19.472;-99.276;2023-09-19T13:52:49;8.40;;;7.63;;
13832;SDS011;6987;19.472;-99.276;2023-09-19T13:55:20;8.35;;;7.45;;
13832;SDS011;6987;19.472;-99.276;2023-09-19T13:57:50;7.47;;;6.80;;
13832;SDS011;6987;19.472;-99.276;2023-09-19T14:00:21;7.82;;;7.13;;
13832;SDS011;6987;19.472;-99.276;2023-09-19T14:02:51;7.45;;;6.85;;
13832;SDS011;6987;19.472;-99.276;2023-09-19T14:05:20;7.75;;;7.15;;
13832;SDS011;6987;19.472;-99.276;2023-09-19T14:07:49;6.93;;;6.32;;
13832;SDS011;6987;19.472;-99.276;2023-09-19T14:10:18;16.27;;;7.60;;
13832;SDS011;6987;19.472;-99.276;2023-09-19T14:12:48;7.55;;;6.93;;
13832;SDS011;6987;19.472;-99.276;2023-09-19T14:15:18;7.13;;;6.60;;
13832;SDS011;6987;19.472;-99.276;2023-09-19T14:17:54;7.40;;;6.70;;
13832;SDS011;6987;19.472;-99.276;2023-09-19T14:20:24;6.70;;;6.20;;
13832;SDS011;6987;19.472;-99.276;2023-09-19T14:22:55;6.00;;;5.60;;
13832;SDS011;6987;19.472;-99.276;2023-09-19T14:25:27;6.22;;;5.72;;
13832;SDS011;6987;19.472;-99.276;2023-09-19T14:27:56;6.28;;;5.65;;
13832;SDS011;6987;19.472;-99.276;2023-09-19T14:30:26;6.55;;;5.72;;
13832;SDS011;6987;19.472;-99.276;2023-09-19T14:32:55;6.05;;;5.65;;
13832;SDS011;6987;19.472;-99.276;2023-09-19T14:35:24;6.53;;;5.93;;
13832;SDS011;6987;19.472;-99.276;2023-09-19T14:37:53;4.68;;;4.28;;
13832;SDS011;6987;19.472;-99.276;2023-09-19T14:40:22;4.97;;;4.57;;
13832;SDS011;6987;19.472;-99.276;2023-09-19T14:42:54;4.70;;;4.40;;
13832;SDS011;6987;19.472;-99.276;2023-09-19T14:45:23;5.00;;;4.60;;
13832;SDS011;6987;19.472;-99.276;2023-09-19T14:47:52;4.85;;;4.55;;
13832;SDS011;6987;19.472;-99.276;2023-09-19T14:50:23;5.43;;;4.80;;
13832;SDS011;6987;19.472;-99.276;2023-09-19T14:52:52;5.82;;;5.40;;
13832;SDS011;6987;19.472;-99.276;2023-09-19T14:55:21;5.40;;;5.00;;
13832;SDS011;6987;19.472;-99.276;2023-09-19T14:57:50;5.90;;;5.40;;
13832;SDS011;6987;19.472;-99.276;2023-09-19T15:00:23;4.80;;;4.40;;
13832;SDS011;6987;19.472;-99.276;2023-09-19T15:02:53;5.10;;;4.60;;
13832;SDS011;6987;19.472;-99.276;2023-09-19T15:05:22;4.70;;;4.40;;
13832;SDS011;6987;19.472;-99.276;2023-09-19T15:07:51;4.95;;;4.65;;
13832;SDS011;6987;19.472;-99.276;2023-09-19T15:10:21;6.28;;;4.75;;
13832;SDS011;6987;19.472;-99.276;2023-09-19T15:12:51;5.72;;;5.22;;
13832;SDS011;6987;19.472;-99.276;2023-09-19T15:15:20;5.93;;;5.53;;
13832;SDS011;6987;19.472;-99.276;2023-09-19T15:17:51;6.07;;;5.55;;
13832;SDS011;6987;19.472;-99.276;2023-09-19T15:20:20;6.85;;;6.22;;
13832;SDS011;6987;19.472;-99.276;2023-09-19T15:22:50;6.75;;;6.15;;
13832;SDS011;6987;19.472;-99.276;2023-09-19T15:25:18;6.43;;;5.93;;
13832;SDS011;6987;19.472;-99.276;2023-09-19T15:27:49;6.63;;;5.60;;